sensor_id;sensor_type;location;lat;lon;timestamp;pressure;altitude;pressure_sealevel;temperature;humidity
15674;BME280;7937;48.090;16.212;2022-09-29T00:00:50;96319.38;;;9.83;86.97
15674;BME280;7937;48.090;16.212;2022-09-29T00:03:52;96316.06;;;9.81;87.58
15674;BME280;7937;48.090;16.212;2022-09-29T00:06:54;96312.09;;;9.77;87.41
15674;BME280;7937;48.090;16.212;2022-09-29T00:09:56;96309.91;;;9.73;87.71
15674;BME280;7937;48.090;16.212;2022-09-29T00:12:58;96313.66;;;9.70;88.05
15674;BME280;7937;48.090;16.212;2022-09-29T00:16:01;96323.38;;;9.70;88.42
15674;BME280;7937;48.090;16.212;2022-09-29T00:19:04;96315.78;;;9.67;88.09
15674;BME280;7937;48.090;16.212;2022-09-29T00:22:06;96314.00;;;9.67;89.00
15674;BME280;7937;48.090;16.212;2022-09-29T00:25:08;96315.13;;;9.65;88.34
15674;BME280;7937;48.090;16.212;2022-09-29T00:28:09;96311.78;;;9.62;88.57
15674;BME280;7937;48.090;16.212;2022-09-29T00:31:11;96315.56;;;9.60;88.86
15674;BME280;7937;48.090;16.212;2022-09-29T00:34:14;96319.34;;;9.57;89.28
15674;BME280;7937;48.090;16.212;2022-09-29T00:37:16;96310.44;;;9.58;89.21
15674;BME280;7937;48.090;16.212;2022-09-29T00:40:18;96313.38;;;9.55;89.93
15674;BME280;7937;48.090;16.212;2022-09-29T00:43:46;96310.06;;;9.53;89.46
15674;BME280;7937;48.090;16.212;2022-09-29T00:47:00;96315.75;;;9.49;90.48
15674;BME280;7937;48.090;16.212;2022-09-29T00:50:17;96309.16;;;9.45;90.12
15674;BME280;7937;48.090;16.212;2022-09-29T00:53:21;96307.78;;;9.41;89.77
15674;BME280;7937;48.090;16.212;2022-09-29T00:56:24;96311.72;;;9.37;90.43
15674;BME280;7937;48.090;16.212;2022-09-29T01:00:05;96311.88;;;9.35;89.99
15674;BME280;7937;48.090;16.212;2022-09-29T01:03:04;96314.50;;;9.35;89.70
15674;BME280;7937;48.090;16.212;2022-09-29T01:06:22;96310.06;;;9.36;90.02
15674;BME280;7937;48.090;16.212;2022-09-29T01:09:31;96313.81;;;9.33;90.33
15674;BME280;7937;48.090;16.212;2022-09-29T01:12:35;96315.06;;;9.29;90.55
15674;BME280;7937;48.090;16.212;2022-09-29T01:15:37;96308.84;;;9.30;90.68
15674;BME280;7937;48.090;16.212;2022-09-29T01:18:40;96320.88;;;9.33;90.50
15674;BME280;7937;48.090;16.212;2022-09-29T01:31:59;96328.56;;;9.26;91.00
15674;BME280;7937;48.090;16.212;2022-09-29T01:41:55;96326.06;;;9.24;90.98
15674;BME280;7937;48.090;16.212;2022-09-29T01:45:14;96333.00;;;9.25;91.04
15674;BME280;7937;48.090;16.212;2022-09-29T01:48:23;96320.94;;;9.23;91.00
15674;BME280;7937;48.090;16.212;2022-09-29T01:51:37;96327.47;;;9.19;90.77
15674;BME280;7937;48.090;16.212;2022-09-29T01:58:04;96316.84;;;9.11;90.56
15674;BME280;7937;48.090;16.212;2022-09-29T02:01:10;96310.41;;;9.05;90.57
15674;BME280;7937;48.090;16.212;2022-09-29T02:04:30;96313.78;;;8.98;89.93
15674;BME280;7937;48.090;16.212;2022-09-29T02:07:37;96318.19;;;8.97;90.40
15674;BME280;7937;48.090;16.212;2022-09-29T02:11:06;96321.94;;;8.95;90.02
15674;BME280;7937;48.090;16.212;2022-09-29T02:14:18;96320.28;;;8.94;90.17
15674;BME280;7937;48.090;16.212;2022-09-29T02:17:43;96316.00;;;8.93;90.21
15674;BME280;7937;48.090;16.212;2022-09-29T02:20:47;96316.53;;;8.96;90.84
15674;BME280;7937;48.090;16.212;2022-09-29T02:23:51;96318.19;;;8.97;90.58
15674;BME280;7937;48.090;16.212;2022-09-29T02:26:53;96323.47;;;8.97;90.68
15674;BME280;7937;48.090;16.212;2022-09-29T02:29:56;96328.19;;;8.94;90.93
15674;BME280;7937;48.090;16.212;2022-09-29T02:33:00;96321.81;;;8.96;90.10
15674;BME280;7937;48.090;16.212;2022-09-29T02:56:02;96323.84;;;8.75;90.01
15674;BME280;7937;48.090;16.212;2022-09-29T03:02:25;96334.56;;;8.54;91.72
15674;BME280;7937;48.090;16.212;2022-09-29T03:05:28;96342.75;;;8.51;92.10
15674;BME280;7937;48.090;16.212;2022-09-29T03:08:30;96341.78;;;8.52;91.60
15674;BME280;7937;48.090;16.212;2022-09-29T03:11:33;96336.97;;;8.47;92.11
15674;BME280;7937;48.090;16.212;2022-09-29T03:14:35;96348.31;;;8.48;92.27
15674;BME280;7937;48.090;16.212;2022-09-29T03:17:38;96352.88;;;8.46;91.54
15674;BME280;7937;48.090;16.212;2022-09-29T03:20:40;96355.19;;;8.49;92.65
15674;BME280;7937;48.090;16.212;2022-09-29T03:23:42;96347.84;;;8.52;91.92
15674;BME280;7937;48.090;16.212;2022-09-29T03:26:44;96339.69;;;8.56;91.74
15674;BME280;7937;48.090;16.212;2022-09-29T03:29:46;96345.09;;;8.54;91.97
15674;BME280;7937;48.090;16.212;2022-09-29T03:32:49;96354.63;;;8.55;91.09
15674;BME280;7937;48.090;16.212;2022-09-29T03:35:51;96356.72;;;8.51;91.40
15674;BME280;7937;48.090;16.212;2022-09-29T03:38:52;96349.66;;;8.52;90.91
15674;BME280;7937;48.090;16.212;2022-09-29T03:41:55;96341.06;;;8.50;90.02
15674;BME280;7937;48.090;16.212;2022-09-29T03:44:57;96344.25;;;8.54;90.50
15674;BME280;7937;48.090;16.212;2022-09-29T03:47:59;96352.97;;;8.54;90.62
15674;BME280;7937;48.090;16.212;2022-09-29T03:51:01;96352.97;;;8.54;89.66
15674;BME280;7937;48.090;16.212;2022-09-29T03:54:04;96342.47;;;8.54;90.49
15674;BME280;7937;48.090;16.212;2022-09-29T03:57:06;96344.13;;;8.55;89.88
15674;BME280;7937;48.090;16.212;2022-09-29T04:00:09;96349.25;;;8.57;90.21
15674;BME280;7937;48.090;16.212;2022-09-29T04:03:11;96337.06;;;8.56;89.39
15674;BME280;7937;48.090;16.212;2022-09-29T04:06:13;96338.88;;;8.55;89.82
15674;BME280;7937;48.090;16.212;2022-09-29T04:09:15;96341.63;;;8.54;89.42
15674;BME280;7937;48.090;16.212;2022-09-29T04:12:17;96349.38;;;8.55;90.24
15674;BME280;7937;48.090;16.212;2022-09-29T04:15:19;96360.88;;;8.54;90.27
15674;BME280;7937;48.090;16.212;2022-09-29T04:18:21;96362.81;;;8.52;89.63
15674;BME280;7937;48.090;16.212;2022-09-29T04:21:25;96359.22;;;8.53;89.75
15674;BME280;7937;48.090;16.212;2022-09-29T04:24:27;96357.97;;;8.57;89.66
15674;BME280;7937;48.090;16.212;2022-09-29T04:27:29;96351.72;;;8.58;89.66
15674;BME280;7937;48.090;16.212;2022-09-29T04:30:31;96351.72;;;8.58;90.23
15674;BME280;7937;48.090;16.212;2022-09-29T04:33:33;96345.09;;;8.54;89.88
15674;BME280;7937;48.090;16.212;2022-09-29T04:36:35;96348.97;;;8.50;90.10
15674;BME280;7937;48.090;16.212;2022-09-29T04:39:37;96337.94;;;8.46;91.07
15674;BME280;7937;48.090;16.212;2022-09-29T04:42:39;96340.69;;;8.45;90.65
15674;BME280;7937;48.090;16.212;2022-09-29T04:45:41;96341.94;;;8.41;90.88
15674;BME280;7937;48.090;16.212;2022-09-29T04:48:43;96350.13;;;8.38;90.87
15674;BME280;7937;48.090;16.212;2022-09-29T04:51:45;96344.88;;;8.38;90.35
15674;BME280;7937;48.090;16.212;2022-09-29T04:54:47;96345.97;;;8.35;90.59
15674;BME280;7937;48.090;16.212;2022-09-29T04:57:49;96342.78;;;8.32;90.85
15674;BME280;7937;48.090;16.212;2022-09-29T05:00:52;96346.25;;;8.32;90.99
15674;BME280;7937;48.090;16.212;2022-09-29T05:03:54;96353.53;;;8.29;91.00
15674;BME280;7937;48.090;16.212;2022-09-29T05:06:56;96362.44;;;8.28;91.50
15674;BME280;7937;48.090;16.212;2022-09-29T05:09:58;96373.78;;;8.28;92.02
15674;BME280;7937;48.090;16.212;2022-09-29T05:13:00;96365.63;;;8.31;91.98
15674;BME280;7937;48.090;16.212;2022-09-29T05:16:03;96365.34;;;8.34;92.07
15674;BME280;7937;48.090;16.212;2022-09-29T05:19:05;96351.63;;;8.40;91.73
15674;BME280;7937;48.090;16.212;2022-09-29T05:22:08;96359.94;;;8.45;91.29
15674;BME280;7937;48.090;16.212;2022-09-29T05:25:10;96363.63;;;8.52;92.15
15674;BME280;7937;48.090;16.212;2022-09-29T05:28:12;96361.13;;;8.61;91.93
15674;BME280;7937;48.090;16.212;2022-09-29T05:31:18;96368.59;;;8.65;91.55
15674;BME280;7937;48.090;16.212;2022-09-29T05:34:20;96363.84;;;8.69;91.34
15674;BME280;7937;48.090;16.212;2022-09-29T05:37:22;96370.50;;;8.73;91.74
15674;BME280;7937;48.090;16.212;2022-09-29T05:40:24;96377.13;;;8.77;91.71
15674;BME280;7937;48.090;16.212;2022-09-29T05:43:27;96385.53;;;8.80;91.53
15674;BME280;7937;48.090;16.212;2022-09-29T05:46:30;96385.13;;;8.85;90.86
15674;BME280;7937;48.090;16.212;2022-09-29T05:49:32;96395.50;;;8.86;91.90
15674;BME280;7937;48.090;16.212;2022-09-29T05:52:34;96399.63;;;8.89;90.82
15674;BME280;7937;48.090;16.212;2022-09-29T05:55:36;96390.91;;;8.88;90.87
15674;BME280;7937;48.090;16.212;2022-09-29T05:58:39;96390.22;;;8.96;90.66
15674;BME280;7937;48.090;16.212;2022-09-29T06:01:41;96397.97;;;8.98;90.87
15674;BME280;7937;48.090;16.212;2022-09-29T06:04:44;96398.63;;;9.00;91.43
15674;BME280;7937;48.090;16.212;2022-09-29T06:07:46;96401.81;;;9.03;90.78
15674;BME280;7937;48.090;16.212;2022-09-29T06:10:48;96399.03;;;9.05;90.53
15674;BME280;7937;48.090;16.212;2022-09-29T06:13:52;96401.38;;;9.08;90.54
15674;BME280;7937;48.090;16.212;2022-09-29T06:16:54;96404.44;;;9.03;90.88
15674;BME280;7937;48.090;16.212;2022-09-29T06:19:56;96400.28;;;9.01;90.50
15674;BME280;7937;48.090;16.212;2022-09-29T06:22:59;96399.47;;;9.00;90.54
15674;BME280;7937;48.090;16.212;2022-09-29T06:26:04;96394.59;;;9.05;90.42
15674;BME280;7937;48.090;16.212;2022-09-29T06:29:06;96399.41;;;9.10;89.53
15674;BME280;7937;48.090;16.212;2022-09-29T06:32:08;96399.97;;;9.13;89.90
15674;BME280;7937;48.090;16.212;2022-09-29T06:35:11;96408.53;;;9.15;90.55
15674;BME280;7937;48.090;16.212;2022-09-29T06:38:31;96406.59;;;9.17;90.52
15674;BME280;7937;48.090;16.212;2022-09-29T06:41:33;96406.28;;;9.20;90.89
15674;BME280;7937;48.090;16.212;2022-09-29T06:44:35;96398.81;;;9.25;89.60
15674;BME280;7937;48.090;16.212;2022-09-29T06:47:38;96405.00;;;9.34;88.81
15674;BME280;7937;48.090;16.212;2022-09-29T06:50:39;96397.72;;;9.46;88.25
15674;BME280;7937;48.090;16.212;2022-09-29T06:53:41;96400.81;;;9.59;87.86
15674;BME280;7937;48.090;16.212;2022-09-29T06:56:50;96399.63;;;9.71;87.58
15674;BME280;7937;48.090;16.212;2022-09-29T06:59:53;96396.78;;;9.82;87.60
15674;BME280;7937;48.090;16.212;2022-09-29T07:02:55;96397.81;;;9.89;86.77
15674;BME280;7937;48.090;16.212;2022-09-29T07:06:01;96401.38;;;9.98;86.36
15674;BME280;7937;48.090;16.212;2022-09-29T07:09:21;96399.81;;;10.05;86.54
15674;BME280;7937;48.090;16.212;2022-09-29T07:12:24;96397.22;;;10.13;86.18
15674;BME280;7937;48.090;16.212;2022-09-29T07:15:27;96399.56;;;10.16;85.28
15674;BME280;7937;48.090;16.212;2022-09-29T07:18:37;96399.28;;;10.19;84.80
15674;BME280;7937;48.090;16.212;2022-09-29T07:21:39;96398.06;;;10.31;84.69
15674;BME280;7937;48.090;16.212;2022-09-29T07:24:41;96389.63;;;10.46;84.63
15674;BME280;7937;48.090;16.212;2022-09-29T07:27:45;96392.50;;;10.60;83.64
15674;BME280;7937;48.090;16.212;2022-09-29T07:31:16;96402.66;;;10.73;83.02
15674;BME280;7937;48.090;16.212;2022-09-29T07:34:19;96393.13;;;10.80;82.99
15674;BME280;7937;48.090;16.212;2022-09-29T07:37:21;96396.59;;;10.81;82.52
15674;BME280;7937;48.090;16.212;2022-09-29T07:40:23;96404.53;;;10.89;82.53
15674;BME280;7937;48.090;16.212;2022-09-29T07:43:25;96405.59;;;10.96;82.52
15674;BME280;7937;48.090;16.212;2022-09-29T07:46:27;96419.28;;;10.99;82.04
15674;BME280;7937;48.090;16.212;2022-09-29T07:49:29;96418.84;;;11.04;82.54
15674;BME280;7937;48.090;16.212;2022-09-29T07:52:31;96421.66;;;11.10;82.96
15674;BME280;7937;48.090;16.212;2022-09-29T07:55:33;96419.34;;;11.07;80.62
15674;BME280;7937;48.090;16.212;2022-09-29T07:58:36;96427.16;;;11.17;79.90
15674;BME280;7937;48.090;16.212;2022-09-29T08:01:38;96435.13;;;11.25;79.29
15674;BME280;7937;48.090;16.212;2022-09-29T08:04:41;96435.69;;;11.37;79.07
15674;BME280;7937;48.090;16.212;2022-09-29T08:07:50;96434.22;;;11.51;79.06
15674;BME280;7937;48.090;16.212;2022-09-29T08:11:07;96437.44;;;11.70;78.28
15674;BME280;7937;48.090;16.212;2022-09-29T08:14:10;96444.63;;;11.86;76.48
15674;BME280;7937;48.090;16.212;2022-09-29T08:17:12;96434.09;;;12.10;74.58
15674;BME280;7937;48.090;16.212;2022-09-29T08:20:14;96440.25;;;12.27;74.90
15674;BME280;7937;48.090;16.212;2022-09-29T08:23:16;96444.88;;;12.25;74.19
15674;BME280;7937;48.090;16.212;2022-09-29T08:26:20;96448.34;;;12.26;74.82
15674;BME280;7937;48.090;16.212;2022-09-29T08:29:39;96445.53;;;12.27;74.41
15674;BME280;7937;48.090;16.212;2022-09-29T08:32:54;96453.13;;;12.30;74.48
15674;BME280;7937;48.090;16.212;2022-09-29T08:35:59;96446.19;;;12.29;74.49
15674;BME280;7937;48.090;16.212;2022-09-29T08:39:02;96438.44;;;12.28;74.62
15674;BME280;7937;48.090;16.212;2022-09-29T08:42:12;96443.22;;;12.24;74.29
15674;BME280;7937;48.090;16.212;2022-09-29T08:45:29;96445.84;;;12.16;74.32
15674;BME280;7937;48.090;16.212;2022-09-29T08:48:37;96439.38;;;12.18;73.70
15674;BME280;7937;48.090;16.212;2022-09-29T08:51:57;96435.59;;;12.29;73.31
15674;BME280;7937;48.090;16.212;2022-09-29T08:58:23;96442.06;;;12.75;72.74
15674;BME280;7937;48.090;16.212;2022-09-29T09:01:41;96448.97;;;13.01;71.97
15674;BME280;7937;48.090;16.212;2022-09-29T09:18:51;96461.25;;;13.65;65.48
15674;BME280;7937;48.090;16.212;2022-09-29T09:29:26;96451.06;;;13.46;63.65
15674;BME280;7937;48.090;16.212;2022-09-29T09:32:40;96461.94;;;13.51;64.32
15674;BME280;7937;48.090;16.212;2022-09-29T09:35:52;96459.72;;;13.71;64.66
15674;BME280;7937;48.090;16.212;2022-09-29T09:39:13;96453.16;;;13.89;64.08
15674;BME280;7937;48.090;16.212;2022-09-29T09:42:23;96456.50;;;13.83;63.52
15674;BME280;7937;48.090;16.212;2022-09-29T09:45:35;96453.22;;;13.81;64.13
15674;BME280;7937;48.090;16.212;2022-09-29T09:48:45;96454.53;;;13.85;64.48
15674;BME280;7937;48.090;16.212;2022-09-29T09:55:05;96466.47;;;13.34;64.41
15674;BME280;7937;48.090;16.212;2022-09-29T10:01:31;96461.78;;;13.52;64.30
15674;BME280;7937;48.090;16.212;2022-09-29T10:04:34;96458.19;;;13.84;63.64
15674;BME280;7937;48.090;16.212;2022-09-29T10:07:36;96465.66;;;14.12;63.84
15674;BME280;7937;48.090;16.212;2022-09-29T10:10:41;96460.81;;;14.15;62.42
15674;BME280;7937;48.090;16.212;2022-09-29T10:14:21;96447.41;;;13.86;60.15
15674;BME280;7937;48.090;16.212;2022-09-29T10:17:30;96435.69;;;13.72;61.91
15674;BME280;7937;48.090;16.212;2022-09-29T10:20:36;96444.03;;;13.92;61.20
15674;BME280;7937;48.090;16.212;2022-09-29T10:23:38;96447.69;;;14.67;61.15
15674;BME280;7937;48.090;16.212;2022-09-29T10:26:54;96451.75;;;15.16;55.84
15674;BME280;7937;48.090;16.212;2022-09-29T10:29:57;96438.28;;;15.46;56.16
15674;BME280;7937;48.090;16.212;2022-09-29T10:33:03;96431.84;;;15.85;54.87
15674;BME280;7937;48.090;16.212;2022-09-29T10:36:11;96431.06;;;16.06;53.84
15674;BME280;7937;48.090;16.212;2022-09-29T10:39:39;60274.75;;;16.27;100.00
15674;BME280;7937;48.090;16.212;2022-09-29T10:42:44;60274.75;;;-144.22;100.00
15674;BME280;7937;48.090;16.212;2022-09-29T10:45:49;60274.75;;;-144.22;100.00
15674;BME280;7937;48.090;16.212;2022-09-29T10:49:27;60274.75;;;-144.22;100.00
15674;BME280;7937;48.090;16.212;2022-09-29T10:52:30;60274.75;;;-144.22;100.00
15674;BME280;7937;48.090;16.212;2022-09-29T10:55:34;60274.75;;;-144.22;100.00
15674;BME280;7937;48.090;16.212;2022-09-29T10:58:39;60274.75;;;-144.22;100.00
15674;BME280;7937;48.090;16.212;2022-09-29T11:02:00;60274.75;;;-144.22;100.00
15674;BME280;7937;48.090;16.212;2022-09-29T11:05:21;60274.75;;;17.85;100.00
15674;BME280;7937;48.090;16.212;2022-09-29T11:08:24;60274.75;;;-144.22;100.00
15674;BME280;7937;48.090;16.212;2022-09-29T11:11:34;60274.75;;;-144.22;100.00
15674;BME280;7937;48.090;16.212;2022-09-29T11:17:48;96446.06;;;16.12;53.24
15674;BME280;7937;48.090;16.212;2022-09-29T11:27:59;96440.19;;;15.82;53.93
15674;BME280;7937;48.090;16.212;2022-09-29T11:38:26;96454.56;;;15.87;52.65
15674;BME280;7937;48.090;16.212;2022-09-29T11:45:03;96444.59;;;15.31;54.44
15674;BME280;7937;48.090;16.212;2022-09-29T11:59:20;96444.41;;;15.32;58.83
15674;BME280;7937;48.090;16.212;2022-09-29T12:02:35;96446.78;;;15.27;57.22
15674;BME280;7937;48.090;16.212;2022-09-29T12:12:39;96458.50;;;15.03;55.65
15674;BME280;7937;48.090;16.212;2022-09-29T12:18:55;96432.91;;;16.48;52.27
15674;BME280;7937;48.090;16.212;2022-09-29T12:22:00;96439.41;;;17.65;52.33
15674;BME280;7937;48.090;16.212;2022-09-29T12:25:04;96426.81;;;18.00;48.16
15674;BME280;7937;48.090;16.212;2022-09-29T12:28:23;96441.91;;;17.80;47.34
15674;BME280;7937;48.090;16.212;2022-09-29T12:31:34;96441.47;;;17.35;48.63
15674;BME280;7937;48.090;16.212;2022-09-29T12:34:43;96438.13;;;17.26;49.11
15674;BME280;7937;48.090;16.212;2022-09-29T12:44:30;96425.88;;;17.39;48.15
15674;BME280;7937;48.090;16.212;2022-09-29T12:47:56;96423.44;;;17.78;47.01
15674;BME280;7937;48.090;16.212;2022-09-29T12:54:33;96437.94;;;17.62;46.79
15674;BME280;7937;48.090;16.212;2022-09-29T12:57:40;96427.81;;;17.17;48.31
15674;BME280;7937;48.090;16.212;2022-09-29T13:00:47;96429.28;;;16.98;48.91
15674;BME280;7937;48.090;16.212;2022-09-29T13:17:59;60274.75;;;-144.22;100.00
15674;BME280;7937;48.090;16.212;2022-09-29T13:21:52;60274.75;;;-144.22;100.00
15674;BME280;7937;48.090;16.212;2022-09-29T13:27:35;60274.75;;;-144.22;100.00
15674;BME280;7937;48.090;16.212;2022-09-29T13:30:39;60274.75;;;-144.22;100.00
15674;BME280;7937;48.090;16.212;2022-09-29T13:33:50;60274.75;;;-144.22;100.00
15674;BME280;7937;48.090;16.212;2022-09-29T13:37:07;60274.75;;;-144.22;100.00
15674;BME280;7937;48.090;16.212;2022-09-29T13:40:20;60274.75;;;-144.22;100.00
15674;BME280;7937;48.090;16.212;2022-09-29T13:46:54;60274.75;;;-144.22;100.00
15674;BME280;7937;48.090;16.212;2022-09-29T13:50:38;60274.75;;;-144.22;100.00
15674;BME280;7937;48.090;16.212;2022-09-29T13:56:26;60274.75;;;-144.22;100.00
15674;BME280;7937;48.090;16.212;2022-09-29T13:59:28;60274.75;;;-144.22;100.00
15674;BME280;7937;48.090;16.212;2022-09-29T14:05:44;60274.75;;;-144.22;100.00
15674;BME280;7937;48.090;16.212;2022-09-29T14:09:00;60274.75;;;-144.22;100.00
15674;BME280;7937;48.090;16.212;2022-09-29T14:12:25;60274.75;;;-144.22;100.00
15674;BME280;7937;48.090;16.212;2022-09-29T14:15:35;60274.75;;;-144.22;100.00
15674;BME280;7937;48.090;16.212;2022-09-29T14:18:47;60274.75;;;-144.22;100.00
15674;BME280;7937;48.090;16.212;2022-09-29T14:21:57;60274.75;;;-144.22;100.00
15674;BME280;7937;48.090;16.212;2022-09-29T14:28:13;60274.75;;;-144.22;100.00
15674;BME280;7937;48.090;16.212;2022-09-29T14:31:20;60274.75;;;-144.22;100.00
15674;BME280;7937;48.090;16.212;2022-09-29T14:34:29;60274.75;;;-144.22;100.00
15674;BME280;7937;48.090;16.212;2022-09-29T14:37:35;60274.75;;;-144.22;100.00
15674;BME280;7937;48.090;16.212;2022-09-29T14:40:37;60274.75;;;-144.22;100.00
15674;BME280;7937;48.090;16.212;2022-09-29T14:43:47;60274.75;;;-144.22;100.00
15674;BME280;7937;48.090;16.212;2022-09-29T14:50:28;60274.75;;;-144.22;100.00
15674;BME280;7937;48.090;16.212;2022-09-29T14:54:06;60274.75;;;-144.22;100.00
15674;BME280;7937;48.090;16.212;2022-09-29T15:03:51;60274.75;;;-144.22;100.00
15674;BME280;7937;48.090;16.212;2022-09-29T15:06:54;60274.75;;;-144.22;100.00
15674;BME280;7937;48.090;16.212;2022-09-29T15:09:58;60274.75;;;-144.22;100.00
15674;BME280;7937;48.090;16.212;2022-09-29T15:13:23;60274.75;;;-144.22;100.00
15674;BME280;7937;48.090;16.212;2022-09-29T15:16:46;60274.75;;;-144.22;100.00
15674;BME280;7937;48.090;16.212;2022-09-29T15:26:13;60274.75;;;-144.22;100.00
15674;BME280;7937;48.090;16.212;2022-09-29T15:29:17;60274.75;;;-144.22;100.00
15674;BME280;7937;48.090;16.212;2022-09-29T15:32:29;60274.75;;;-144.22;100.00
15674;BME280;7937;48.090;16.212;2022-09-29T15:35:38;60274.75;;;-144.22;100.00
15674;BME280;7937;48.090;16.212;2022-09-29T15:38:43;60274.75;;;-144.22;100.00
15674;BME280;7937;48.090;16.212;2022-09-29T15:41:45;60274.75;;;-144.22;100.00
15674;BME280;7937;48.090;16.212;2022-09-29T15:44:53;60274.75;;;-144.22;100.00
15674;BME280;7937;48.090;16.212;2022-09-29T15:48:01;60274.75;;;-144.22;100.00
15674;BME280;7937;48.090;16.212;2022-09-29T15:51:04;60274.75;;;-144.22;100.00
15674;BME280;7937;48.090;16.212;2022-09-29T15:54:06;60274.75;;;-144.22;100.00
15674;BME280;7937;48.090;16.212;2022-09-29T15:57:50;60274.75;;;-144.22;100.00
15674;BME280;7937;48.090;16.212;2022-09-29T16:01:00;60274.75;;;-144.22;100.00
15674;BME280;7937;48.090;16.212;2022-09-29T16:04:10;60274.75;;;-144.22;100.00
15674;BME280;7937;48.090;16.212;2022-09-29T16:07:40;60274.75;;;-144.22;100.00
15674;BME280;7937;48.090;16.212;2022-09-29T16:10:55;60274.75;;;-144.22;100.00
15674;BME280;7937;48.090;16.212;2022-09-29T16:14:01;60274.75;;;-144.22;100.00
15674;BME280;7937;48.090;16.212;2022-09-29T16:17:07;60274.75;;;-144.22;100.00
15674;BME280;7937;48.090;16.212;2022-09-29T16:20:13;60274.75;;;-144.22;100.00
15674;BME280;7937;48.090;16.212;2022-09-29T16:26:35;60274.75;;;-144.22;100.00
15674;BME280;7937;48.090;16.212;2022-09-29T16:29:37;60274.75;;;-144.22;100.00
15674;BME280;7937;48.090;16.212;2022-09-29T16:32:39;60274.75;;;-144.22;100.00
15674;BME280;7937;48.090;16.212;2022-09-29T16:36:20;60274.75;;;-144.22;100.00
15674;BME280;7937;48.090;16.212;2022-09-29T16:39:26;60274.75;;;-144.22;100.00
15674;BME280;7937;48.090;16.212;2022-09-29T16:42:29;60274.75;;;-144.22;100.00
15674;BME280;7937;48.090;16.212;2022-09-29T16:45:31;60274.75;;;-144.22;100.00
15674;BME280;7937;48.090;16.212;2022-09-29T16:48:37;60274.75;;;-144.22;100.00
15674;BME280;7937;48.090;16.212;2022-09-29T16:51:45;60274.75;;;-144.22;100.00
15674;BME280;7937;48.090;16.212;2022-09-29T16:54:48;60274.75;;;-144.22;100.00
15674;BME280;7937;48.090;16.212;2022-09-29T16:58:28;60274.75;;;-144.22;100.00
15674;BME280;7937;48.090;16.212;2022-09-29T17:01:23;60274.75;;;-144.22;100.00
15674;BME280;7937;48.090;16.212;2022-09-29T17:04:26;60274.75;;;-144.22;100.00
15674;BME280;7937;48.090;16.212;2022-09-29T17:07:28;60274.75;;;-144.22;100.00
15674;BME280;7937;48.090;16.212;2022-09-29T17:10:30;60274.75;;;-144.22;100.00
15674;BME280;7937;48.090;16.212;2022-09-29T17:13:34;60274.75;;;-144.22;100.00
15674;BME280;7937;48.090;16.212;2022-09-29T17:16:36;60274.75;;;-144.22;100.00
15674;BME280;7937;48.090;16.212;2022-09-29T17:19:39;60274.75;;;-144.22;100.00
15674;BME280;7937;48.090;16.212;2022-09-29T17:22:42;60274.75;;;-144.22;100.00
15674;BME280;7937;48.090;16.212;2022-09-29T17:25:47;60274.75;;;-144.22;100.00
15674;BME280;7937;48.090;16.212;2022-09-29T17:28:49;60274.75;;;-144.22;100.00
15674;BME280;7937;48.090;16.212;2022-09-29T17:31:51;60274.75;;;-144.22;100.00
15674;BME280;7937;48.090;16.212;2022-09-29T17:34:55;60274.75;;;-144.22;100.00
15674;BME280;7937;48.090;16.212;2022-09-29T17:37:57;60274.75;;;-144.22;100.00
15674;BME280;7937;48.090;16.212;2022-09-29T17:41:01;60274.75;;;-144.22;100.00
15674;BME280;7937;48.090;16.212;2022-09-29T17:44:04;60274.75;;;-144.22;100.00
15674;BME280;7937;48.090;16.212;2022-09-29T17:47:13;60274.75;;;-144.22;100.00
15674;BME280;7937;48.090;16.212;2022-09-29T17:50:41;60274.75;;;-144.22;100.00
15674;BME280;7937;48.090;16.212;2022-09-29T17:53:44;60274.75;;;-144.22;100.00
15674;BME280;7937;48.090;16.212;2022-09-29T17:56:48;60274.75;;;-144.22;100.00
15674;BME280;7937;48.090;16.212;2022-09-29T17:59:50;60274.75;;;-144.22;100.00
15674;BME280;7937;48.090;16.212;2022-09-29T18:02:53;60274.75;;;-144.22;100.00
15674;BME280;7937;48.090;16.212;2022-09-29T18:06:00;60274.75;;;-144.22;100.00
15674;BME280;7937;48.090;16.212;2022-09-29T18:09:14;60274.75;;;-144.22;100.00
15674;BME280;7937;48.090;16.212;2022-09-29T18:12:17;60274.75;;;-144.22;100.00
15674;BME280;7937;48.090;16.212;2022-09-29T18:15:20;60274.75;;;-144.22;100.00
15674;BME280;7937;48.090;16.212;2022-09-29T18:18:23;60274.75;;;-144.22;100.00
15674;BME280;7937;48.090;16.212;2022-09-29T18:21:25;60274.75;;;-144.22;100.00
15674;BME280;7937;48.090;16.212;2022-09-29T18:24:27;60274.75;;;-144.22;100.00
15674;BME280;7937;48.090;16.212;2022-09-29T18:27:30;60274.75;;;-144.22;100.00
15674;BME280;7937;48.090;16.212;2022-09-29T18:30:33;60274.75;;;-144.22;100.00
15674;BME280;7937;48.090;16.212;2022-09-29T18:33:41;60274.75;;;-144.22;100.00
15674;BME280;7937;48.090;16.212;2022-09-29T18:36:44;60274.75;;;-144.22;100.00
15674;BME280;7937;48.090;16.212;2022-09-29T18:39:47;60274.75;;;-144.22;100.00
15674;BME280;7937;48.090;16.212;2022-09-29T18:42:50;60274.75;;;-144.22;100.00
15674;BME280;7937;48.090;16.212;2022-09-29T18:45:54;60274.75;;;-144.22;100.00
15674;BME280;7937;48.090;16.212;2022-09-29T18:48:57;60274.75;;;-144.22;100.00
15674;BME280;7937;48.090;16.212;2022-09-29T18:51:59;60274.75;;;-144.22;100.00
15674;BME280;7937;48.090;16.212;2022-09-29T18:55:02;60274.75;;;-144.22;100.00
15674;BME280;7937;48.090;16.212;2022-09-29T18:58:04;60274.75;;;-144.22;100.00
15674;BME280;7937;48.090;16.212;2022-09-29T19:01:10;60274.75;;;-144.22;100.00
15674;BME280;7937;48.090;16.212;2022-09-29T19:04:14;60274.75;;;-144.22;100.00
15674;BME280;7937;48.090;16.212;2022-09-29T19:07:17;60274.75;;;-144.22;100.00
15674;BME280;7937;48.090;16.212;2022-09-29T19:10:21;60274.75;;;-144.22;100.00
15674;BME280;7937;48.090;16.212;2022-09-29T19:13:26;60274.75;;;-144.22;100.00
15674;BME280;7937;48.090;16.212;2022-09-29T19:16:31;60274.75;;;-144.22;100.00